createdAt,value
2023-01-15T00:01:44.380Z,95455.84
2023-01-15T00:04:11.603Z,95455.44
2023-01-15T00:06:39.105Z,95443.53
2023-01-15T00:09:06.544Z,95437.03
2023-01-15T00:11:33.541Z,95447.91
2023-01-15T00:14:00.794Z,95440.03
2023-01-15T00:16:28.155Z,95457.50
2023-01-15T00:18:55.933Z,95447.69
2023-01-15T00:21:25.658Z,95455.31
2023-01-15T00:27:12.609Z,95451.75
2023-01-15T00:32:21.189Z,95448.38
2023-01-15T00:37:48.113Z,95450.28
2023-01-15T00:40:20.785Z,95473.16
2023-01-15T00:42:53.986Z,95463.28
2023-01-15T00:45:22.135Z,95467.25
2023-01-15T00:48:14.764Z,95471.03
2023-01-15T00:50:45.315Z,95459.97
2023-01-15T01:01:58.635Z,95490.09
2023-01-15T01:04:35.022Z,95488.03
2023-01-15T01:07:18.886Z,95475.53
2023-01-15T01:09:47.845Z,95488.69
2023-01-15T01:12:30.625Z,95491.03
2023-01-15T01:14:59.960Z,95503.00
2023-01-15T01:17:26.732Z,95493.38
2023-01-15T01:19:53.484Z,95507.78
2023-01-15T01:22:20.588Z,95501.78
2023-01-15T01:24:47.550Z,95511.94
2023-01-15T01:27:14.131Z,95519.03
2023-01-15T01:29:41.006Z,95516.59
2023-01-15T01:32:07.753Z,95524.59
2023-01-15T01:34:34.588Z,95530.00
2023-01-15T01:37:01.537Z,95528.19
2023-01-15T01:39:30.538Z,95544.66
2023-01-15T01:41:57.376Z,95546.63
2023-01-15T01:44:33.358Z,95555.44
2023-01-15T01:47:01.709Z,95566.03
2023-01-15T01:49:31.666Z,95566.22
2023-01-15T01:52:03.273Z,95563.50
2023-01-15T01:54:34.114Z,95551.91
2023-01-15T01:57:00.972Z,95536.41
2023-01-15T01:59:27.821Z,95528.97
2023-01-15T02:01:57.255Z,95535.34
2023-01-15T02:04:27.646Z,95525.47
2023-01-15T02:06:58.387Z,95516.66
2023-01-15T02:09:26.225Z,95517.66
2023-01-15T02:11:57.299Z,95490.97
2023-01-15T02:14:58.941Z,95500.59
2023-01-15T02:17:36.683Z,95487.66
2023-01-15T02:20:12.740Z,95480.63
2023-01-15T02:22:39.420Z,95484.31
2023-01-15T02:25:27.678Z,95476.88
2023-01-15T02:28:14.253Z,95491.97
2023-01-15T02:30:45.460Z,95501.13
2023-01-15T02:33:13.863Z,95501.44
2023-01-15T02:35:48.024Z,95498.22
2023-01-15T02:38:20.342Z,95504.41
2023-01-15T02:40:49.648Z,95501.81
2023-01-15T02:43:16.676Z,95504.34
2023-01-15T02:45:45.329Z,95492.59
2023-01-15T02:51:02.665Z,95487.28
2023-01-15T02:53:32.315Z,95482.06
2023-01-15T02:56:20.716Z,95477.78
2023-01-15T02:58:51.748Z,95491.69
2023-01-15T03:01:42.296Z,95503.47
2023-01-15T03:04:24.359Z,95491.88
2023-01-15T03:10:00.144Z,95503.81
2023-01-15T03:12:37.552Z,95503.19
2023-01-15T03:17:56.805Z,95477.69
2023-01-15T03:20:29.135Z,95486.22
2023-01-15T03:23:09.660Z,95467.00
2023-01-15T03:25:47.671Z,95469.88
2023-01-15T03:28:17.791Z,95466.91
2023-01-15T03:33:32.138Z,95489.34
2023-01-15T03:36:11.162Z,95501.94
2023-01-15T03:38:41.441Z,95498.53
2023-01-15T03:44:17.347Z,95506.63
2023-01-15T04:11:40.914Z,95461.59
2023-01-15T09:20:34.032Z,95650.59
2023-01-15T09:37:25.419Z,95664.22
2023-01-15T11:25:28.153Z,95655.38
2023-01-15T13:09:43.278Z,95650.59
2023-01-15T13:12:16.705Z,95655.28
2023-01-15T13:14:50.966Z,95664.09
2023-01-15T13:39:06.718Z,95655.09
2023-01-15T13:55:55.269Z,95674.81
2023-01-15T13:58:25.888Z,95669.22
2023-01-15T14:01:10.646Z,95678.22
2023-01-15T14:03:53.823Z,95664.53
2023-01-15T14:06:20.393Z,95683.16
2023-01-15T14:08:47.078Z,95670.13
2023-01-15T14:11:32.365Z,95679.22
2023-01-15T14:14:17.942Z,95678.13
2023-01-15T14:17:00.613Z,95668.44
2023-01-15T14:22:32.991Z,95683.34
2023-01-15T14:25:00.702Z,95683.09
2023-01-15T14:27:57.039Z,95676.63
2023-01-15T14:33:40.128Z,95677.56
2023-01-15T14:36:26.933Z,95676.31
2023-01-15T14:38:57.073Z,95686.75
2023-01-15T14:41:32.367Z,95684.88
2023-01-15T14:46:50.817Z,95692.91
2023-01-15T14:52:12.937Z,95698.13
2023-01-15T14:54:39.719Z,95696.22
2023-01-15T14:59:59.745Z,95735.06
2023-01-15T15:02:32.013Z,95710.41
2023-01-15T15:04:59.468Z,95720.41
2023-01-15T15:07:43.209Z,95709.16
2023-01-15T15:13:43.524Z,95718.44
2023-01-15T15:19:13.962Z,95726.06
2023-01-15T15:21:44.733Z,95734.53
2023-01-15T15:32:15.549Z,95736.97
2023-01-15T15:46:31.582Z,95733.34
2023-01-15T15:54:57.010Z,95734.03
2023-01-15T19:02:28.398Z,95741.00
2023-01-15T19:05:00.024Z,95730.59
2023-01-15T19:10:25.500Z,95732.72
2023-01-15T19:32:01.023Z,95718.53
2023-01-15T19:37:16.206Z,95704.22
2023-01-15T19:39:45.117Z,95694.63
2023-01-15T22:40:00.566Z,95471.16
2023-01-15T22:50:29.272Z,95478.91
2023-01-15T22:52:57.355Z,95449.69
2023-01-15T23:03:44.679Z,95438.38
2023-01-15T23:06:18.685Z,95438.84
